Celebrity Century — 9HJI9 — position and weather

sailwx.info

Track history (hours):
 
Tides and Currents Weather Stations Pressure Air Temp Water Temp Dewpoint Dewpoint Depression Visibility Wind Speed Wind Dir Waves Ship Positions

Celebrity Century

Last reported at 2014-Jul-30 06:33 UTC. Time now 2014-Jul-30 07:05 UTC.
Position N 58°14' W 135°32'.

Length 252 m; draft 8.1 m.

Type: Ship. MMSI: 249054000.

Date/timePositionNaut miles runAvg speedWind from/ knotsBaromVisibWave heightAir tempDewpointWater temp
2014-Jul-30 06:33N 58°14' W 135°32'28410.4
2014-Jul-29 03:18N 54°13' W 131°03'16218.0
2014-Jul-28 18:18N 51°53' W 128°47'5118.3
2014-Jul-28 15:32N 51°09' W 128°06'1818.1
2014-Jul-28 14:33N 50°58' W 127°45'1616.5
2014-Jul-28 13:33N 50°49' W 127°23'1919.2
2014-Jul-28 12:33N 50°42' W 126°55'1615.5
2014-Jul-28 11:30N 50°31' W 126°36'1717.4
2014-Jul-28 10:32N 50°28' W 126°09'3114.5
2014-Jul-28 08:24N 50°17' W 125°24'1314.1
2014-Jul-28 07:31N 50°05' W 125°17'1313.2
2014-Jul-28 06:29N 49°54' W 125°04'1112.2
2014-Jul-28 05:33N 49°46' W 124°52'1313.1
2014-Jul-28 04:33N 49°37' W 124°38'1312.7
2014-Jul-28 03:33N 49°28' W 124°25'1313.5
2014-Jul-28 02:33N 49°22' W 124°06'1313.4
2014-Jul-28 01:33N 49°19' W 123°46'1313.4
2014-Jul-28 00:33N 49°15' W 123°26'13 6.5
2014-Jul-27 22:33N 49°17' W 123°06'0 0.0
2014-Jul-27 21:33N 49°17' W 123°06'0 0.0
2014-Jul-27 20:32N 49°17' W 123°06'0 0.0
2014-Jul-27 19:32N 49°17' W 123°06'0 0.0
2014-Jul-27 18:32N 49°17' W 123°06'0 0.0
2014-Jul-27 17:31N 49°17' W 123°06'0 0.0
2014-Jul-27 16:28N 49°17' W 123°06'0 0.0
2014-Jul-27 15:33N 49°17' W 123°06'0 0.0
2014-Jul-27 14:33N 49°17' W 123°06'2 2.0
2014-Jul-27 13:34N 49°19' W 123°08'1717.4
2014-Jul-27 12:34N 49°19' W 123°35'1818.4
2014-Jul-27 11:34N 49°22' W 124°03'1818.2
2014-Jul-27 10:33N 49°29' W 124°29'1919.1
2014-Jul-27 09:33N 49°44' W 124°48'1918.6
2014-Jul-27 08:34N 49°57' W 125°08'1414.0
2014-Jul-27 07:33N 50°08' W 125°21'11 9.9
2014-Jul-27 06:26N 50°19' W 125°25'5811.8
2014-Jul-27 01:31N 50°40' W 126°51'1313.9
2014-Jul-27 00:33N 50°45' W 127°10'1514.9
2014-Jul-26 23:33N 50°51' W 127°31'1615.7
2014-Jul-26 22:33N 51°01' W 127°51'1717.1
2014-Jul-26 21:33N 51°12' W 128°11'3617.0
2014-Jul-26 19:26N 51°44' W 128°38'  
2014-Jul-24 09:34N 58°11' W 135°21'1616.3
2014-Jul-24 08:33N 58°19' W 135°48'1615.8
2014-Jul-24 07:33N 58°18' W 136°18'8 0.3
2014-Jul-23 07:33N 58°20' W 136°03'1717.0
2014-Jul-23 06:33N 58°14' W 135°33'7 1.1
2014-Jul-23 00:12N 58°08' W 135°28'27712.8
2014-Jul-22 02:32N 54°13' W 131°03'21117.5
2014-Jul-21 14:29N 51°11' W 128°09'1717.8
2014-Jul-21 13:33N 51°00' W 127°48'1716.9
2014-Jul-21 12:33N 50°50' W 127°27'1919.1
2014-Jul-21 11:33N 50°42' W 126°60'1917.5
2014-Jul-21 10:28N 50°31' W 126°36'5017.1
2014-Jul-21 07:33N 50°13' W 125°23'1411.5
2014-Jul-21 06:19N 50°00' W 125°13'1013.3
2014-Jul-21 05:33N 49°53' W 125°02'1615.2
2014-Jul-21 04:30N 49°42' W 124°44'1515.2
2014-Jul-21 03:32N 49°30' W 124°29'1515.2
2014-Jul-21 02:34N 49°23' W 124°10'1615.7
2014-Jul-21 01:34N 49°19' W 123°47'1515.3
2014-Jul-21 00:34N 49°16' W 123°24'1111.3
2014-Jul-20 23:33N 49°18' W 123°06'1 0.5
2014-Jul-20 22:33N 49°17' W 123°06'0 0.0
2014-Jul-20 21:32N 49°17' W 123°06'0 0.0
2014-Jul-20 20:32N 49°17' W 123°06'0 0.0
2014-Jul-20 19:31N 49°17' W 123°06'0 0.0
2014-Jul-20 18:31N 49°17' W 123°06'0 0.0
2014-Jul-20 17:33N 49°17' W 123°06'0 0.0
2014-Jul-20 16:33N 49°17' W 123°06'0 0.0
2014-Jul-20 15:33N 49°17' W 123°06'0 0.0
2014-Jul-20 14:32N 49°17' W 123°06'0 0.2
2014-Jul-20 13:33N 49°17' W 123°06'10 9.6
2014-Jul-20 12:33N 49°17' W 123°21'1211.9
2014-Jul-20 11:34N 49°15' W 123°39'1615.6
2014-Jul-20 10:33N 49°21' W 124°01'1615.8
2014-Jul-20 09:33N 49°27' W 124°24'1615.6
2014-Jul-20 08:33N 49°38' W 124°41'1615.7
2014-Jul-20 07:33N 49°50' W 124°57'  
Track history (hours):
 
Tides and Currents Weather Stations Pressure Air Temp Water Temp Dewpoint Dewpoint Depression Visibility Wind Speed Wind Dir Waves Ship Positions

Celebrity Century

Last reported at 2014-Jul-30 06:33 UTC. Time now 2014-Jul-30 07:05 UTC.
Position N 58°14' W 135°32'.

Length 252 m; draft 8.1 m.

Type: Ship. MMSI: 249054000.

Date/timePositionNaut miles runAvg speedWind from/ knotsBaromVisibWave heightAir tempDewpointWater temp
2014-Jul-30 06:33N 58°14' W 135°32'28410.4
2014-Jul-29 03:18N 54°13' W 131°03'16218.0
2014-Jul-28 18:18N 51°53' W 128°47'5118.3
2014-Jul-28 15:32N 51°09' W 128°06'1818.1
2014-Jul-28 14:33N 50°58' W 127°45'1616.5
2014-Jul-28 13:33N 50°49' W 127°23'1919.2
2014-Jul-28 12:33N 50°42' W 126°55'1615.5
2014-Jul-28 11:30N 50°31' W 126°36'1717.4
2014-Jul-28 10:32N 50°28' W 126°09'3114.5
2014-Jul-28 08:24N 50°17' W 125°24'1314.1
2014-Jul-28 07:31N 50°05' W 125°17'1313.2
2014-Jul-28 06:29N 49°54' W 125°04'1112.2
2014-Jul-28 05:33N 49°46' W 124°52'1313.1
2014-Jul-28 04:33N 49°37' W 124°38'1312.7
2014-Jul-28 03:33N 49°28' W 124°25'1313.5
2014-Jul-28 02:33N 49°22' W 124°06'1313.4
2014-Jul-28 01:33N 49°19' W 123°46'1313.4
2014-Jul-28 00:33N 49°15' W 123°26'13 6.5
2014-Jul-27 22:33N 49°17' W 123°06'0 0.0
2014-Jul-27 21:33N 49°17' W 123°06'0 0.0
2014-Jul-27 20:32N 49°17' W 123°06'0 0.0
2014-Jul-27 19:32N 49°17' W 123°06'0 0.0
2014-Jul-27 18:32N 49°17' W 123°06'0 0.0
2014-Jul-27 17:31N 49°17' W 123°06'0 0.0
2014-Jul-27 16:28N 49°17' W 123°06'0 0.0
2014-Jul-27 15:33N 49°17' W 123°06'0 0.0
2014-Jul-27 14:33N 49°17' W 123°06'2 2.0
2014-Jul-27 13:34N 49°19' W 123°08'1717.4
2014-Jul-27 12:34N 49°19' W 123°35'1818.4
2014-Jul-27 11:34N 49°22' W 124°03'1818.2
2014-Jul-27 10:33N 49°29' W 124°29'1919.1
2014-Jul-27 09:33N 49°44' W 124°48'1918.6
2014-Jul-27 08:34N 49°57' W 125°08'1414.0
2014-Jul-27 07:33N 50°08' W 125°21'11 9.9
2014-Jul-27 06:26N 50°19' W 125°25'5811.8
2014-Jul-27 01:31N 50°40' W 126°51'1313.9
2014-Jul-27 00:33N 50°45' W 127°10'1514.9
2014-Jul-26 23:33N 50°51' W 127°31'1615.7
2014-Jul-26 22:33N 51°01' W 127°51'1717.1
2014-Jul-26 21:33N 51°12' W 128°11'3617.0
2014-Jul-26 19:26N 51°44' W 128°38'  
2014-Jul-24 09:34N 58°11' W 135°21'1616.3
2014-Jul-24 08:33N 58°19' W 135°48'1615.8
2014-Jul-24 07:33N 58°18' W 136°18'8 0.3
2014-Jul-23 07:33N 58°20' W 136°03'1717.0
2014-Jul-23 06:33N 58°14' W 135°33'7 1.1
2014-Jul-23 00:12N 58°08' W 135°28'27712.8
2014-Jul-22 02:32N 54°13' W 131°03'21117.5
2014-Jul-21 14:29N 51°11' W 128°09'1717.8
2014-Jul-21 13:33N 51°00' W 127°48'1716.9
2014-Jul-21 12:33N 50°50' W 127°27'1919.1
2014-Jul-21 11:33N 50°42' W 126°60'1917.5
2014-Jul-21 10:28N 50°31' W 126°36'5017.1
2014-Jul-21 07:33N 50°13' W 125°23'1411.5
2014-Jul-21 06:19N 50°00' W 125°13'1013.3
2014-Jul-21 05:33N 49°53' W 125°02'1615.2
2014-Jul-21 04:30N 49°42' W 124°44'1515.2
2014-Jul-21 03:32N 49°30' W 124°29'1515.2
2014-Jul-21 02:34N 49°23' W 124°10'1615.7
2014-Jul-21 01:34N 49°19' W 123°47'1515.3
2014-Jul-21 00:34N 49°16' W 123°24'1111.3
2014-Jul-20 23:33N 49°18' W 123°06'1 0.5
2014-Jul-20 22:33N 49°17' W 123°06'0 0.0
2014-Jul-20 21:32N 49°17' W 123°06'0 0.0
2014-Jul-20 20:32N 49°17' W 123°06'0 0.0
2014-Jul-20 19:31N 49°17' W 123°06'0 0.0
2014-Jul-20 18:31N 49°17' W 123°06'0 0.0
2014-Jul-20 17:33N 49°17' W 123°06'0 0.0
2014-Jul-20 16:33N 49°17' W 123°06'0 0.0
2014-Jul-20 15:33N 49°17' W 123°06'0 0.0
2014-Jul-20 14:32N 49°17' W 123°06'0 0.2
2014-Jul-20 13:33N 49°17' W 123°06'10 9.6
2014-Jul-20 12:33N 49°17' W 123°21'1211.9
2014-Jul-20 11:34N 49°15' W 123°39'1615.6
2014-Jul-20 10:33N 49°21' W 124°01'1615.8
2014-Jul-20 09:33N 49°27' W 124°24'1615.6
2014-Jul-20 08:33N 49°38' W 124°41'1615.7
2014-Jul-20 07:33N 49°50' W 124°57'  

Dump ship's entire track history